Time;durP1;ratioP1;P1;durP2;ratioP2;P2;SDS_P1;SDS_P2;PMS_P1;PMS_P2;Temp;Humidity;BMP_temperature;BMP_pressure;BME280_temperature;BME280_humidity;BME280_pressure;Samples;Min_cycle;Max_cycle;Signal;HPM_P1;HPM_P2
2022/08/22 00:00:22;;;;;;;;;;;19.70;61.30;;;;;;5020815;28;20285;-85
2022/08/22 00:03:18;;;;;;;5.00;2.08;;;19.70;61.20;;;;;;5033128;28;19921;-85
2022/08/22 00:05:53;;;;;;;2.50;1.45;;;19.60;61.10;;;;;;5017555;28;20029;-86
2022/08/22 00:08:40;;;;;;;4.80;2.67;;;19.60;61.20;;;;;;4996152;28;20045;-84
2022/08/22 00:11:06;;;;;;;6.15;2.63;;;19.50;61.10;;;;;;4995192;28;20025;-84
2022/08/22 00:14:01;;;;;;;4.07;1.58;;;19.50;61.20;;;;;;5015908;28;20068;-85
2022/08/22 00:16:53;;;;;;;4.22;1.60;;;19.40;61.40;;;;;;4972982;28;20091;-83
2022/08/22 00:19:22;;;;;;;5.85;1.52;;;19.40;61.50;;;;;;5026651;28;20117;-83
2022/08/22 00:21:54;;;;;;;2.70;1.42;;;19.40;61.40;;;;;;4999722;28;20099;-84
2022/08/22 00:24:51;;;;;;;3.57;1.90;;;19.30;61.50;;;;;;4997118;28;20025;-84
2022/08/22 00:27:27;;;;;;;3.00;1.50;;;19.30;61.70;;;;;;5027429;28;20025;-83
2022/08/22 00:30:03;;;;;;;3.22;1.70;;;19.20;61.50;;;;;;5009140;28;20048;-83
2022/08/22 00:32:37;;;;;;;3.72;1.67;;;19.30;61.80;;;;;;4998280;28;20631;-85
2022/08/22 00:35:35;;;;;;;6.13;1.65;;;19.20;61.70;;;;;;5026870;28;20431;-83
2022/08/22 00:38:26;;;;;;;2.95;1.45;;;19.20;61.90;;;;;;5012807;28;20484;-82
2022/08/22 00:41:15;;;;;;;4.03;1.50;;;19.10;61.80;;;;;;4974742;28;20034;-85
2022/08/22 00:44:11;;;;;;;4.95;1.92;;;19.10;61.80;;;;;;5031377;28;20033;-85
2022/08/22 00:46:50;;;;;;;5.35;1.80;;;19.10;62.00;;;;;;4997105;28;20068;-85
2022/08/22 00:49:29;;;;;;;3.97;2.13;;;19.00;61.80;;;;;;5018941;28;20035;-84
2022/08/22 00:52:25;;;;;;;3.10;1.40;;;19.00;61.90;;;;;;4979776;28;20060;-83
2022/08/22 00:55:11;;;;;;;3.63;1.65;;;18.90;61.90;;;;;;5019568;28;20359;-85
2022/08/22 00:58:11;;;;;;;3.40;1.90;;;18.90;62.00;;;;;;5018373;28;20060;-83
2022/08/22 01:00:45;;;;;;;3.97;2.10;;;18.90;62.10;;;;;;5020471;28;20033;-84
2022/08/22 01:03:35;;;;;;;3.63;1.63;;;18.80;62.00;;;;;;5013247;28;20499;-84
2022/08/22 01:06:27;;;;;;;4.85;1.50;;;18.80;62.10;;;;;;5010959;28;20021;-85
2022/08/22 01:09:36;;;;;;;2.67;1.77;;;18.80;62.10;;;;;;5033482;28;20034;-84
2022/08/22 01:12:26;;;;;;;3.38;1.60;;;18.70;62.00;;;;;;4953246;28;20933;-85
2022/08/22 01:15:06;;;;;;;3.45;2.20;;;18.70;62.10;;;;;;4937641;28;20059;-84
2022/08/22 01:17:45;;;;;;;4.00;2.22;;;18.70;62.10;;;;;;4991145;28;20099;-83
2022/08/22 01:20:43;;;;;;;3.70;1.77;;;18.70;62.30;;;;;;5026877;28;20055;-83
2022/08/22 01:23:50;;;;;;;2.80;1.30;;;18.60;62.20;;;;;;4990218;28;20041;-84
2022/08/22 01:26:31;;;;;;;6.75;2.35;;;18.60;62.30;;;;;;4981701;28;20113;-84
2022/08/22 01:29:28;;;;;;;4.28;1.50;;;18.60;62.30;;;;;;4980945;28;20038;-85
2022/08/22 01:32:13;;;;;;;6.07;1.90;;;18.50;62.30;;;;;;5014665;28;20415;-86
2022/08/22 01:34:54;;;;;;;5.75;1.90;;;18.50;62.20;;;;;;5031126;28;20078;-85
2022/08/22 01:37:47;;;;;;;3.42;2.33;;;18.50;62.40;;;;;;4975379;28;20061;-86
2022/08/22 01:40:34;;;;;;;5.13;1.95;;;18.50;62.50;;;;;;5013351;28;20097;-84
2022/08/22 01:43:00;;;;;;;5.63;2.30;;;18.50;62.60;;;;;;4996264;28;20360;-85
2022/08/22 01:45:29;;;;;;;3.28;2.00;;;18.40;62.40;;;;;;4998344;28;20134;-85
2022/08/22 01:48:13;;;;;;;4.13;1.77;;;18.40;62.50;;;;;;5027340;28;20039;-86
2022/08/22 01:51:10;;;;;;;3.67;1.52;;;18.40;62.70;;;;;;4999137;28;20106;-84
2022/08/22 01:53:49;;;;;;;3.80;1.65;;;18.40;62.80;;;;;;5008997;28;20100;-86
2022/08/22 01:56:19;;;;;;;3.88;1.70;;;18.40;62.80;;;;;;5011816;28;20026;-85
2022/08/22 01:58:56;;;;;;;8.75;1.58;;;18.30;62.60;;;;;;5026252;28;20375;-83
2022/08/22 02:01:46;;;;;;;5.07;2.70;;;18.30;62.80;;;;;;5001946;28;20053;-84
2022/08/22 02:04:37;;;;;;;3.47;1.75;;;18.30;62.90;;;;;;5023200;28;20033;-83
2022/08/22 02:07:22;;;;;;;4.22;1.70;;;18.30;63.50;;;;;;5007584;28;20030;-82
2022/08/22 02:10:09;;;;;;;4.60;1.70;;;18.30;62.90;;;;;;5014148;28;20034;-84
2022/08/22 02:12:44;;;;;;;6.93;2.83;;;18.30;63.10;;;;;;5000380;28;20130;-85
2022/08/22 02:15:41;;;;;;;3.75;2.55;;;18.20;62.90;;;;;;5022656;28;20099;-85
2022/08/22 02:18:09;;;;;;;4.00;1.85;;;18.20;63.00;;;;;;5011512;28;20061;-84
2022/08/22 02:20:57;;;;;;;3.03;1.90;;;18.20;63.00;;;;;;5025364;28;20072;-83
2022/08/22 02:23:32;;;;;;;3.67;1.85;;;18.20;63.20;;;;;;5024450;28;20054;-83
2022/08/22 02:26:01;;;;;;;5.10;2.25;;;18.20;63.10;;;;;;5028689;28;20036;-83
2022/08/22 02:28:42;;;;;;;3.50;1.70;;;18.10;63.10;;;;;;5027358;28;20028;-83
2022/08/22 02:31:23;;;;;;;3.80;1.45;;;18.10;63.20;;;;;;5028321;28;20029;-84
2022/08/22 02:33:55;;;;;;;6.05;2.22;;;18.10;63.30;;;;;;5017169;28;20034;-84
2022/08/22 02:36:24;;;;;;;3.53;2.38;;;18.10;63.30;;;;;;4993073;28;20494;-85
2022/08/22 02:39:02;;;;;;;3.17;1.90;;;18.10;63.30;;;;;;5010041;28;20018;-82
2022/08/22 02:41:43;;;;;;;3.10;1.67;;;18.00;63.30;;;;;;4994769;28;20038;-84
2022/08/22 02:44:44;;;;;;;3.78;1.73;;;18.00;63.30;;;;;;5006671;28;20030;-83
2022/08/22 02:47:40;;;;;;;3.70;1.90;;;18.00;63.50;;;;;;4989922;28;20385;-82
2022/08/22 02:50:16;;;;;;;3.38;1.92;;;18.00;63.50;;;;;;4990643;28;20044;-83
2022/08/22 02:53:08;;;;;;;5.25;2.75;;;18.00;64.00;;;;;;4975638;28;20036;-83
2022/08/22 02:55:51;;;;;;;4.03;2.15;;;17.90;63.50;;;;;;5019005;28;20112;-84
2022/08/22 02:58:25;;;;;;;6.60;1.90;;;17.90;63.50;;;;;;4988972;28;20054;-83
2022/08/22 03:01:20;;;;;;;2.83;1.40;;;17.90;63.50;;;;;;4989434;28;20038;-84
2022/08/22 03:03:47;;;;;;;4.90;1.70;;;17.80;63.50;;;;;;4982852;28;20152;-83
2022/08/22 03:06:16;;;;;;;3.03;1.60;;;17.80;63.40;;;;;;5002690;28;21133;-83
2022/08/22 03:09:20;;;;;;;4.28;1.60;;;17.80;63.60;;;;;;5004485;28;20153;-83
2022/08/22 03:11:56;;;;;;;4.35;1.58;;;17.80;63.80;;;;;;5018164;28;20107;-84
2022/08/22 03:14:34;;;;;;;4.47;1.50;;;17.80;63.60;;;;;;4972248;28;20029;-84
2022/08/22 03:17:17;;;;;;;2.90;1.40;;;17.80;63.80;;;;;;4987913;28;20741;-84
2022/08/22 03:19:55;;;;;;;2.30;1.60;;;17.80;63.80;;;;;;5019736;28;20037;-83
2022/08/22 03:22:36;;;;;;;4.63;1.58;;;17.80;63.80;;;;;;4989314;28;20115;-82
2022/08/22 03:25:13;;;;;;;2.42;1.50;;;17.80;64.00;;;;;;4994884;28;20044;-84
2022/08/22 03:27:59;;;;;;;4.70;2.15;;;17.70;63.80;;;;;;5026825;28;20025;-83
2022/08/22 03:30:39;;;;;;;3.28;1.67;;;17.70;63.80;;;;;;5029003;28;20037;-85
2022/08/22 03:33:29;;;;;;;2.95;1.88;;;17.70;63.90;;;;;;5026729;28;20026;-83
2022/08/22 03:36:08;;;;;;;5.55;2.55;;;17.60;63.80;;;;;;5011172;28;20018;-84
2022/08/22 03:38:34;;;;;;;3.45;1.60;;;17.60;63.80;;;;;;5008601;28;20057;-83
2022/08/22 03:41:34;;;;;;;4.63;2.40;;;17.60;63.80;;;;;;5012972;28;20075;-82
2022/08/22 03:44:29;;;;;;;4.63;2.03;;;17.50;63.80;;;;;;5010323;28;20033;-83
2022/08/22 03:47:10;;;;;;;2.83;1.55;;;17.60;64.00;;;;;;5008916;28;20086;-84
2022/08/22 03:50:13;;;;;;;3.28;1.83;;;17.50;63.90;;;;;;5011927;28;20060;-85
2022/08/22 03:53:26;;;;;;;2.50;2.05;;;17.50;64.00;;;;;;4994210;28;20030;-85
2022/08/22 03:56:10;;;;;;;2.80;1.65;;;17.50;63.90;;;;;;5009022;28;20042;-84
2022/08/22 03:59:07;;;;;;;3.42;1.70;;;17.50;63.80;;;;;;5019643;28;20401;-81
2022/08/22 04:01:50;;;;;;;4.07;1.90;;;17.50;64.10;;;;;;5021674;28;20552;-84
2022/08/22 04:04:40;;;;;;;3.05;1.88;;;17.40;63.90;;;;;;5000716;28;20021;-83
2022/08/22 04:07:31;;;;;;;2.95;1.63;;;17.40;63.90;;;;;;5032154;28;20059;-84
2022/08/22 04:10:27;;;;;;;3.22;2.05;;;17.40;64.00;;;;;;5019377;28;20033;-83
2022/08/22 04:13:00;;;;;;;4.85;1.60;;;17.40;63.90;;;;;;4980164;28;20030;-83
2022/08/22 04:15:44;;;;;;;2.58;1.73;;;17.40;64.00;;;;;;5021609;28;20047;-84
2022/08/22 04:19:00;;;;;;;4.28;2.30;;;17.40;64.10;;;;;;5020300;28;20040;-84
2022/08/22 04:21:26;;;;;;;3.38;1.80;;;17.40;64.20;;;;;;4983798;28;20049;-84
2022/08/22 04:24:14;;;;;;;3.30;2.40;;;17.40;64.00;;;;;;4986606;28;20183;-83
2022/08/22 04:26:55;;;;;;;6.03;2.13;;;17.40;64.10;;;;;;5037148;28;20045;-84
2022/08/22 04:29:26;;;;;;;2.60;1.90;;;17.40;64.20;;;;;;5021675;28;20476;-84
2022/08/22 04:32:15;;;;;;;3.63;1.95;;;17.40;64.20;;;;;;5005097;28;20041;-84
2022/08/22 04:34:50;;;;;;;4.55;1.70;;;17.40;64.40;;;;;;4987967;28;20041;-84
2022/08/22 04:37:19;;;;;;;7.38;2.30;;;17.40;64.40;;;;;;4995408;28;20109;-83
2022/08/22 04:39:56;;;;;;;5.65;2.00;;;17.40;64.40;;;;;;5019536;28;20090;-85
2022/08/22 04:42:42;;;;;;;5.78;2.08;;;17.40;64.60;;;;;;5026926;28;20037;-84
2022/08/22 04:45:28;;;;;;;1.98;1.73;;;17.40;64.60;;;;;;5035396;28;20475;-84
2022/08/22 04:48:15;;;;;;;4.70;2.33;;;17.30;64.50;;;;;;4994993;28;20033;-85
2022/08/22 04:50:49;;;;;;;2.83;1.85;;;17.40;64.80;;;;;;5005901;28;20040;-85
2022/08/22 04:53:45;;;;;;;6.32;3.30;;;17.30;64.50;;;;;;5003898;28;20083;-85
2022/08/22 04:56:44;;;;;;;3.95;2.08;;;17.30;64.70;;;;;;5001696;28;20059;-85
2022/08/22 04:59:15;;;;;;;4.38;2.72;;;17.30;64.70;;;;;;4998919;28;20049;-85
2022/08/22 05:01:47;;;;;;;4.50;2.30;;;17.30;64.60;;;;;;4994149;28;20043;-84
2022/08/22 05:04:19;;;;;;;5.53;2.33;;;17.30;64.70;;;;;;5015668;28;20806;-83
2022/08/22 05:07:02;;;;;;;4.60;2.55;;;17.30;64.80;;;;;;5001153;28;20033;-84
2022/08/22 05:09:32;;;;;;;4.45;2.17;;;17.30;64.90;;;;;;4996070;28;20112;-84
2022/08/22 05:12:06;;;;;;;3.75;2.33;;;17.30;64.90;;;;;;5013050;28;20041;-83
2022/08/22 05:14:39;;;;;;;2.88;2.30;;;17.30;65.00;;;;;;4993123;28;20017;-83
2022/08/22 05:17:07;;;;;;;;;;;17.30;65.00;;;;;;5012559;28;20360;-82
2022/08/22 05:19:37;;;;;;;3.10;1.90;;;17.30;64.90;;;;;;5015094;28;19931;-82
2022/08/22 05:22:06;;;;;;;3.88;1.88;;;17.40;64.90;;;;;;5025368;28;20128;-81
2022/08/22 05:24:37;;;;;;;5.07;2.97;;;17.40;65.00;;;;;;4995911;28;20037;-83
2022/08/22 05:27:11;;;;;;;4.68;2.55;;;17.40;65.10;;;;;;5027130;28;20366;-83
2022/08/22 05:29:40;;;;;;;5.70;2.95;;;17.40;65.10;;;;;;5015857;28;20041;-84
2022/08/22 05:32:16;;;;;;;16.50;3.92;;;17.40;65.10;;;;;;5006953;28;20037;-84
2022/08/22 05:34:45;;;;;;;2.88;1.98;;;17.40;65.10;;;;;;5012530;28;20021;-92
2022/08/22 05:37:16;;;;;;;4.25;2.20;;;17.40;65.10;;;;;;4997986;28;20044;-84
2022/08/22 05:39:47;;;;;;;4.55;2.40;;;17.50;65.30;;;;;;5028849;28;20432;-86
2022/08/22 05:42:22;;;;;;;5.85;3.70;;;17.50;65.30;;;;;;4975339;28;20048;-87
2022/08/22 05:44:48;;;;;;;8.02;2.75;;;17.50;65.30;;;;;;4997332;28;20026;-85
2022/08/22 05:47:30;;;;;;;2.85;2.17;;;17.50;65.20;;;;;;5018508;28;20568;-88
2022/08/22 05:50:00;;;;;;;4.18;2.60;;;17.60;65.50;;;;;;4986693;28;20034;-89
2022/08/22 05:52:53;;;;;;;4.28;3.50;;;17.60;65.40;;;;;;5017696;28;20354;-89
2022/08/22 05:55:34;;;;;;;5.17;3.20;;;17.60;65.50;;;;;;5040379;28;20037;-91
2022/08/22 05:58:31;;;;;;;4.82;3.15;;;17.70;65.40;;;;;;4982817;28;20041;-95
2022/08/22 06:01:12;;;;;;;6.22;2.83;;;17.70;65.50;;;;;;5002533;28;20025;-90
2022/08/22 06:03:52;;;;;;;4.55;3.40;;;17.80;65.60;;;;;;5002075;28;20026;-89
2022/08/22 06:06:19;;;;;;;7.18;3.50;;;17.80;65.90;;;;;;5013026;28;20026;-85
2022/08/22 06:09:03;;;;;;;5.72;4.55;;;17.90;66.50;;;;;;5012228;28;20041;-87
2022/08/22 06:11:44;;;;;;;7.72;5.07;;;18.10;68.00;;;;;;5024896;28;20030;-88
2022/08/22 06:14:44;;;;;;;7.60;4.53;;;18.20;68.20;;;;;;4991793;28;20041;-84
2022/08/22 06:17:19;;;;;;;7.65;3.97;;;18.50;69.30;;;;;;5011743;28;20036;-87
2022/08/22 06:19:48;;;;;;;5.85;3.67;;;18.70;69.10;;;;;;5029899;28;20211;-87
2022/08/22 06:22:28;;;;;;;5.57;3.75;;;18.90;69.30;;;;;;5033728;28;20049;-82
2022/08/22 06:25:00;;;;;;;4.80;3.90;;;19.10;69.80;;;;;;5008972;28;20067;-83
2022/08/22 06:27:27;;;;;;;5.97;3.72;;;19.20;69.60;;;;;;5047797;28;20288;-85
2022/08/22 06:29:58;;;;;;;6.15;4.10;;;19.30;69.70;;;;;;5048390;28;20035;-89
2022/08/22 06:32:28;;;;;;;7.43;4.40;;;19.40;70.00;;;;;;5049496;28;20451;-81
2022/08/22 06:35:02;;;;;;;7.40;4.65;;;19.50;70.20;;;;;;5031975;28;20088;-85
2022/08/22 06:37:36;;;;;;;5.78;4.43;;;19.50;70.20;;;;;;5032442;28;20167;-87
2022/08/22 06:40:06;;;;;;;6.05;4.32;;;19.60;70.40;;;;;;5027873;28;20145;-89
2022/08/22 06:42:36;;;;;;;7.25;5.03;;;19.60;70.30;;;;;;5026050;28;20038;-87
2022/08/22 06:45:16;;;;;;;8.00;4.93;;;19.60;70.30;;;;;;5022782;28;20043;-89
2022/08/22 06:47:50;;;;;;;4.45;3.97;;;19.60;70.30;;;;;;5023340;28;20302;-86
2022/08/22 06:50:32;;;;;;;6.47;3.97;;;19.60;70.30;;;;;;5028299;28;20831;-87
2022/08/22 06:53:15;;;;;;;6.70;4.28;;;19.70;70.50;;;;;;5021505;28;20021;-90
2022/08/22 06:55:48;;;;;;;7.13;4.18;;;19.80;70.50;;;;;;5024762;28;20063;-90
2022/08/22 06:58:32;;;;;;;5.43;3.70;;;20.00;70.40;;;;;;5009136;28;20049;-91
2022/08/22 07:01:06;;;;;;;7.28;4.43;;;20.10;70.10;;;;;;5005100;28;20083;-91
2022/08/22 07:03:39;;;;;;;6.45;3.28;;;20.30;70.10;;;;;;5019544;28;20052;-93
2022/08/22 07:06:13;;;;;;;4.63;3.30;;;20.40;69.90;;;;;;5027651;28;20400;-89
2022/08/22 07:08:39;;;;;;;4.15;3.25;;;20.50;69.80;;;;;;5012616;28;20087;-88
2022/08/22 07:11:16;;;;;;;7.45;3.58;;;20.60;69.80;;;;;;5027586;28;20060;-92
2022/08/22 07:13:50;;;;;;;6.10;3.55;;;20.60;69.70;;;;;;5024855;28;20033;-93
2022/08/22 07:16:32;;;;;;;6.30;4.13;;;20.60;69.50;;;;;;5015375;28;20036;-86
2022/08/22 07:18:59;;;;;;;5.25;3.88;;;20.60;69.60;;;;;;5014491;28;20104;-85
2022/08/22 07:21:44;;;;;;;5.57;3.72;;;20.60;69.60;;;;;;5029214;28;20049;-90
2022/08/22 07:24:15;;;;;;;5.03;3.80;;;20.60;69.60;;;;;;5027417;28;20021;-86
2022/08/22 07:27:04;;;;;;;7.50;3.55;;;20.60;69.50;;;;;;5027806;28;20128;-89
2022/08/22 07:29:46;;;;;;;6.10;3.60;;;20.70;69.70;;;;;;5026214;28;20120;-88
2022/08/22 07:32:26;;;;;;;6.70;3.35;;;20.70;69.80;;;;;;5017547;28;20428;-88
2022/08/22 07:35:16;;;;;;;6.60;3.70;;;20.70;70.00;;;;;;5027763;28;20053;-89
2022/08/22 07:37:54;;;;;;;8.60;3.80;;;20.80;70.40;;;;;;5027058;28;20056;-90
2022/08/22 07:40:53;;;;;;;6.32;2.75;;;20.80;70.40;;;;;;5016097;28;20044;-83
2022/08/22 07:43:39;;;;;;;5.72;2.50;;;20.90;70.60;;;;;;5018741;28;20033;-83
2022/08/22 07:46:25;;;;;;;6.82;2.80;;;21.10;70.60;;;;;;5029310;28;20033;-85
2022/08/22 07:49:10;;;;;;;5.90;2.83;;;21.20;70.40;;;;;;5007030;28;20026;-83
2022/08/22 07:51:46;;;;;;;6.43;2.40;;;21.60;70.70;;;;;;5023604;28;20108;-85
2022/08/22 07:54:21;;;;;;;4.32;2.63;;;22.00;70.60;;;;;;5020871;28;20036;-84
2022/08/22 07:57:15;;;;;;;4.60;2.03;;;22.40;70.40;;;;;;5023497;28;20388;-85
2022/08/22 07:59:53;;;;;;;5.22;2.35;;;22.80;69.80;;;;;;5022723;28;20057;-82
2022/08/22 08:02:20;;;;;;;4.80;2.70;;;23.30;69.30;;;;;;5025180;28;20037;-89
2022/08/22 08:04:49;;;;;;;4.35;1.80;;;23.30;68.70;;;;;;5011029;28;20068;-85
2022/08/22 08:07:19;;;;;;;5.53;1.98;;;23.40;68.60;;;;;;5011294;28;20082;-87
2022/08/22 08:10:01;;;;;;;4.35;2.53;;;23.50;68.50;;;;;;5024444;28;20029;-86
2022/08/22 08:12:36;;;;;;;4.45;1.75;;;23.70;68.50;;;;;;5024046;28;20033;-89
2022/08/22 08:15:06;;;;;;;3.80;1.52;;;23.80;68.40;;;;;;4996685;28;20034;-83
2022/08/22 08:17:36;;;;;;;5.00;1.73;;;23.80;68.10;;;;;;5025429;28;20045;-82
2022/08/22 08:20:10;;;;;;;2.63;1.10;;;23.90;68.60;;;;;;5026710;28;20033;-84
2022/08/22 08:22:39;;;;;;;4.25;1.85;;;23.90;67.80;;;;;;5025385;28;20037;-84
2022/08/22 08:25:07;;;;;;;5.78;2.30;;;24.00;67.80;;;;;;5025149;28;20435;-82
2022/08/22 08:30:46;;;;;;;3.55;1.77;;;24.20;67.60;;;;;;5036306;28;20448;-84
2022/08/22 08:33:22;;;;;;;3.70;1.23;;;24.40;67.50;;;;;;5007498;28;20209;-82
2022/08/22 08:35:55;;;;;;;5.95;1.80;;;24.60;67.40;;;;;;5026410;28;20059;-83
2022/08/22 08:38:29;;;;;;;4.95;1.35;;;24.60;67.10;;;;;;5030951;28;20024;-86
2022/08/22 08:41:12;;;;;;;4.30;1.00;;;24.70;66.90;;;;;;4999273;28;20033;-89
2022/08/22 08:43:58;;;;;;;3.65;1.40;;;24.60;66.60;;;;;;5015668;28;20117;-86
2022/08/22 08:46:26;;;;;;;4.35;1.23;;;24.50;66.50;;;;;;5027163;28;20056;-88
2022/08/22 08:49:47;;;;;;;4.38;1.65;;;24.50;66.60;;;;;;5025117;28;20466;-87
2022/08/22 08:52:25;;;;;;;4.25;1.50;;;24.50;66.40;;;;;;4947585;28;20082;-87
2022/08/22 08:55:20;;;;;;;4.45;1.50;;;24.60;66.40;;;;;;4993583;28;20046;-89
2022/08/22 08:58:14;;;;;;;3.30;1.50;;;24.70;66.40;;;;;;5014622;28;20040;-87
2022/08/22 09:00:41;;;;;;;3.88;1.40;;;24.80;66.30;;;;;;4996435;28;20037;-87
2022/08/22 09:03:45;;;;;;;4.90;1.65;;;24.80;66.10;;;;;;5011804;28;20127;-92
2022/08/22 09:06:33;;;;;;;3.72;1.30;;;24.90;65.90;;;;;;5013986;28;20046;-88
2022/08/22 09:08:59;;;;;;;3.08;1.10;;;25.10;65.90;;;;;;5027140;28;20036;-90
2022/08/22 09:11:58;;;;;;;2.50;0.95;;;25.10;65.70;;;;;;5026711;28;20045;-89
2022/08/22 09:14:30;;;;;;;4.40;1.23;;;25.20;65.40;;;;;;5005370;28;20037;-87
2022/08/22 09:17:08;;;;;;;4.45;1.40;;;25.30;65.20;;;;;;5023274;28;20110;-87
2022/08/22 09:20:15;;;;;;;2.70;1.30;;;25.30;65.10;;;;;;5025530;28;20029;-84
2022/08/22 09:23:33;;;;;;;4.00;1.10;;;25.30;64.90;;;;;;4910214;29;20051;-84
2022/08/22 09:26:15;;;;;;;3.55;1.33;;;25.20;64.80;;;;;;4907957;29;20040;-84
2022/08/22 09:28:52;;;;;;;2.50;1.10;;;25.20;64.90;;;;;;4968859;28;20037;-86
2022/08/22 09:31:27;;;;;;;3.53;1.58;;;25.20;64.80;;;;;;5011396;28;20030;-85
2022/08/22 09:34:16;;;;;;;4.55;1.02;;;25.20;64.80;;;;;;4982422;28;20033;-85
2022/08/22 09:37:15;;;;;;;4.57;1.45;;;25.20;64.70;;;;;;5016609;28;20158;-88
2022/08/22 09:39:52;;;;;;;3.58;1.00;;;25.20;64.60;;;;;;5009218;28;20208;-86
2022/08/22 09:42:53;;;;;;;3.60;0.93;;;25.10;64.60;;;;;;5012259;28;20041;-87
2022/08/22 09:45:38;;;;;;;2.25;1.48;;;25.10;64.70;;;;;;4987374;28;20137;-86
2022/08/22 09:48:14;;;;;;;1.25;0.90;;;25.00;64.90;;;;;;5024141;28;20098;-87
2022/08/22 09:51:16;;;;;;;3.20;0.98;;;24.90;64.90;;;;;;5008216;28;20039;-88
2022/08/22 09:53:47;;;;;;;3.58;1.15;;;24.80;64.80;;;;;;5011644;28;20399;-89
2022/08/22 09:56:22;;;;;;;3.40;0.80;;;24.70;64.80;;;;;;5026610;28;20380;-89
2022/08/22 09:59:00;;;;;;;4.80;1.50;;;24.60;64.70;;;;;;4991518;28;20385;-89
2022/08/22 10:01:29;;;;;;;2.63;1.00;;;24.60;64.80;;;;;;5010539;28;20182;-88
2022/08/22 10:04:40;;;;;;;3.50;1.02;;;24.50;64.80;;;;;;5013101;28;20033;-87
2022/08/22 10:07:57;;;;;;;3.20;1.00;;;24.50;65.10;;;;;;4995710;28;20029;-87
2022/08/22 10:11:17;;;;;;;1.13;0.60;;;24.40;65.00;;;;;;4942141;28;20033;-88
2022/08/22 10:14:15;;;;;;;3.08;1.10;;;24.20;65.00;;;;;;4947464;28;20045;-87
2022/08/22 10:17:07;;;;;;;4.60;1.42;;;24.10;65.00;;;;;;5025765;28;20045;-86
2022/08/22 10:19:39;;;;;;;3.13;1.05;;;24.10;65.70;;;;;;5024306;28;20018;-87
2022/08/22 10:22:32;;;;;;;1.70;1.05;;;24.10;65.20;;;;;;5024246;28;20299;-87
2022/08/22 10:25:07;;;;;;;3.10;1.35;;;24.10;65.20;;;;;;5008092;28;20029;-87
2022/08/22 10:27:39;;;;;;;3.38;1.40;;;24.10;65.10;;;;;;4984041;28;20049;-88
2022/08/22 10:30:25;;;;;;;3.05;1.20;;;24.20;65.20;;;;;;4997259;28;20025;-89
2022/08/22 10:33:00;;;;;;;1.52;0.52;;;24.20;65.20;;;;;;5021494;28;20025;-86
2022/08/22 10:35:26;;;;;;;1.95;0.95;;;24.30;65.30;;;;;;5015825;28;20041;-83
2022/08/22 10:38:09;;;;;;;1.45;0.80;;;24.30;65.20;;;;;;5010900;28;20022;-83
2022/08/22 10:40:48;;;;;;;2.65;1.05;;;24.40;65.30;;;;;;5014123;28;20165;-83
2022/08/22 10:43:28;;;;;;;3.00;0.80;;;24.50;65.30;;;;;;5022909;28;20030;-84
2022/08/22 10:46:12;;;;;;;3.30;0.93;;;24.60;65.30;;;;;;5023695;28;20075;-84
2022/08/22 10:49:06;;;;;;;3.13;1.35;;;24.80;65.20;;;;;;5012210;28;20025;-90
2022/08/22 10:51:50;;;;;;;2.78;0.65;;;25.10;65.10;;;;;;5009675;28;20029;-90
2022/08/22 10:54:44;;;;;;;3.58;1.50;;;25.20;64.70;;;;;;5024831;28;20040;-89
2022/08/22 10:57:44;;;;;;;3.95;0.98;;;25.40;65.10;;;;;;5027738;28;20025;-84
2022/08/22 11:00:53;;;;;;;2.53;0.90;;;25.50;64.20;;;;;;4996872;28;20037;-93
2022/08/22 11:03:52;;;;;;;2.03;0.60;;;25.60;64.00;;;;;;5039383;28;20136;-93
2022/08/22 11:06:29;;;;;;;0.90;0.52;;;25.70;63.90;;;;;;5031964;28;20025;-92
2022/08/22 11:09:23;;;;;;;1.92;1.00;;;25.70;64.30;;;;;;4994272;28;20041;-93
2022/08/22 11:12:12;;;;;;;4.57;1.27;;;25.80;63.50;;;;;;5000227;28;20035;-91
2022/08/22 11:15:00;;;;;;;1.45;0.70;;;25.90;63.20;;;;;;5027354;28;20439;-90
2022/08/22 11:18:00;;;;;;;3.28;0.88;;;26.00;63.10;;;;;;5032390;28;20060;-92
2022/08/22 11:20:40;;;;;;;2.60;0.80;;;26.10;62.90;;;;;;5035044;28;20079;-92
2022/08/22 11:23:18;;;;;;;1.27;0.50;;;26.10;62.80;;;;;;5001638;28;20049;-91
2022/08/22 11:26:03;;;;;;;2.50;0.70;;;26.10;62.70;;;;;;5045812;28;20053;-91
2022/08/22 11:29:03;;;;;;;1.05;0.63;;;26.10;62.60;;;;;;5047659;28;20057;-92
2022/08/22 11:31:35;;;;;;;1.92;0.80;;;26.00;62.60;;;;;;4996213;28;20055;-93
2022/08/22 11:34:25;;;;;;;3.20;0.98;;;26.00;62.70;;;;;;5048218;28;20392;-92
2022/08/22 11:37:11;;;;;;;1.00;0.60;;;26.10;62.60;;;;;;5038898;28;20313;-93
2022/08/22 11:39:46;;;;;;;2.22;0.60;;;26.20;62.60;;;;;;5022163;28;20064;-94
2022/08/22 11:42:43;;;;;;;2.40;0.75;;;26.30;62.40;;;;;;5014421;28;20688;-94
2022/08/22 11:45:16;;;;;;;1.48;0.60;;;26.60;62.10;;;;;;4996836;28;20024;-91
2022/08/22 11:47:51;;;;;;;1.02;0.40;;;26.80;61.70;;;;;;4982001;28;20091;-92
2022/08/22 11:50:38;;;;;;;5.70;1.27;;;26.80;61.40;;;;;;4978692;28;20026;-89
2022/08/22 11:53:17;;;;;;;1.45;0.93;;;26.90;61.20;;;;;;5016911;28;20052;-90
2022/08/22 11:56:01;;;;;;;4.25;1.48;;;27.00;61.10;;;;;;5001271;28;20029;-90
2022/08/22 11:58:52;;;;;;;1.13;0.40;;;27.00;61.20;;;;;;5018910;28;20072;-91
2022/08/22 12:01:38;;;;;;;0.75;0.47;;;26.90;61.00;;;;;;5031780;28;20135;-90
2022/08/22 12:04:23;;;;;;;1.20;0.73;;;26.90;61.10;;;;;;4999511;28;20037;-86
2022/08/22 12:06:57;;;;;;;1.33;1.13;;;26.80;61.20;;;;;;5019277;28;20118;-91
2022/08/22 12:09:35;;;;;;;0.82;0.50;;;26.80;61.30;;;;;;4995148;28;20041;-91
2022/08/22 12:12:13;;;;;;;2.10;0.60;;;26.70;61.30;;;;;;4990434;28;20476;-95
2022/08/22 12:14:55;;;;;;;0.45;0.45;;;26.70;61.30;;;;;;5001930;28;20034;-94
2022/08/22 12:17:21;;;;;;;1.33;0.60;;;26.70;61.30;;;;;;5016986;28;20033;-91
2022/08/22 12:20:08;;;;;;;0.77;0.52;;;26.70;61.40;;;;;;5031569;28;20461;-95
2022/08/22 12:22:45;;;;;;;0.88;0.63;;;26.70;61.40;;;;;;5003895;28;20055;-94
2022/08/22 12:25:31;;;;;;;0.40;0.30;;;26.60;61.40;;;;;;5025116;28;20046;-92
2022/08/22 12:28:33;;;;;;;1.52;0.52;;;26.60;61.50;;;;;;5029570;28;20071;-94
2022/08/22 12:31:20;;;;;;;0.95;0.57;;;26.50;61.50;;;;;;4996571;28;20442;-89
2022/08/22 12:34:00;;;;;;;1.42;0.60;;;26.50;61.60;;;;;;4996884;28;20450;-92
2022/08/22 12:37:07;;;;;;;0.60;0.40;;;26.50;61.60;;;;;;5036916;28;20210;-91
2022/08/22 12:39:32;;;;;;;0.50;0.30;;;26.50;61.50;;;;;;5012066;28;20099;-90
2022/08/22 12:42:23;;;;;;;0.85;0.30;;;26.60;61.50;;;;;;5030725;28;20045;-91
2022/08/22 12:45:04;;;;;;;1.98;0.70;;;26.60;61.40;;;;;;5038034;28;20026;-87
2022/08/22 12:47:45;;;;;;;0.98;0.50;;;26.70;61.40;;;;;;5007717;28;20065;-91
2022/08/22 12:50:40;;;;;;;0.70;0.40;;;26.70;61.40;;;;;;5035953;28;20030;-90
2022/08/22 12:53:21;;;;;;;0.30;0.30;;;26.80;61.40;;;;;;5024673;28;20781;-91
2022/08/22 12:56:40;;;;;;;0.93;0.40;;;26.90;61.40;;;;;;4992206;28;20040;-91
2022/08/22 12:59:29;;;;;;;0.70;0.50;;;26.90;61.30;;;;;;5016226;28;20156;-93
2022/08/22 13:01:59;;;;;;;0.65;0.25;;;26.90;61.40;;;;;;5006750;28;20048;-90
2022/08/22 13:04:30;;;;;;;0.60;0.40;;;26.80;61.40;;;;;;5018169;28;20022;-93
2022/08/22 13:07:17;;;;;;;0.60;0.40;;;26.80;61.50;;;;;;5005166;28;20101;-92
2022/08/22 13:09:49;;;;;;;1.17;0.43;;;26.80;61.70;;;;;;5019115;28;20148;-91
2022/08/22 13:12:25;;;;;;;0.38;0.20;;;26.70;62.40;;;;;;4997353;28;20099;-91
2022/08/22 13:15:00;;;;;;;0.40;0.40;;;26.60;61.90;;;;;;5034192;28;20140;-92
2022/08/22 13:17:27;;;;;;;0.60;0.40;;;26.60;62.10;;;;;;5021743;28;20116;-94
2022/08/22 13:20:03;;;;;;;0.77;0.50;;;26.60;62.10;;;;;;5029544;28;20075;-91
2022/08/22 13:22:33;;;;;;;0.38;0.30;;;26.60;62.20;;;;;;5033813;28;20071;-90
2022/08/22 13:25:13;;;;;;;0.47;0.40;;;26.70;62.20;;;;;;5028577;28;20076;-88
2022/08/22 13:27:42;;;;;;;0.90;0.35;;;26.80;62.20;;;;;;5025343;28;20053;-90
2022/08/22 13:30:16;;;;;;;0.98;0.55;;;26.80;62.10;;;;;;4994754;28;20025;-92
2022/08/22 13:33:10;;;;;;;0.68;0.45;;;26.80;62.20;;;;;;5007888;28;20372;-92
2022/08/22 13:35:47;;;;;;;0.57;0.50;;;26.80;62.30;;;;;;5017735;28;20052;-92
2022/08/22 13:38:21;;;;;;;0.60;0.40;;;26.80;62.30;;;;;;5007291;28;20025;-92
2022/08/22 13:40:50;;;;;;;1.35;0.57;;;26.80;62.30;;;;;;5019134;28;20354;-89
2022/08/22 13:43:59;;;;;;;0.90;0.40;;;26.80;62.30;;;;;;5016869;28;20055;-93
2022/08/22 13:46:29;;;;;;;0.45;0.30;;;26.90;62.40;;;;;;5015702;28;20385;-90
2022/08/22 13:48:58;;;;;;;0.40;0.20;;;27.20;62.10;;;;;;4998500;28;20334;-90
2022/08/22 13:51:44;;;;;;;0.35;0.30;;;27.50;61.80;;;;;;4992065;28;20053;-87
2022/08/22 13:54:13;;;;;;;0.63;0.30;;;27.90;61.40;;;;;;5016664;28;20049;-89
2022/08/22 13:57:01;;;;;;;0.30;0.30;;;28.20;60.80;;;;;;5015955;28;20033;-92
2022/08/22 13:59:54;;;;;;;1.35;0.40;;;28.60;60.30;;;;;;5000484;28;20075;-89
2022/08/22 14:02:38;;;;;;;1.40;0.52;;;29.00;59.70;;;;;;4994064;28;20038;-91
2022/08/22 14:05:10;;;;;;;0.57;0.32;;;29.30;59.10;;;;;;5010951;28;20029;-92
2022/08/22 14:07:58;;;;;;;0.20;0.20;;;29.60;58.80;;;;;;5028331;28;20017;-91